• Join FlightAware (Why Join?)
  • Login
  • US Flag 
02:52PM EDT


 

Airport Tracker/Info


-or-


 

Live Flight TrackerFlight Track Log ✈ AFL150 ✈ 28-Jul-2013 ✈ UUEE / SVO - MUHA / HAV

Flight Track Log - Related Links

Times and Time Zones

All times are in EDT time to prevent confusion due to time zone crossing. See the AFL150 flight status page for this flight to view local times or setup timezone preferences in your user account.

Time Position Orientation Groundspeed Altitude Reporting Facility
EDT Latitude Longitude Course Direction KTS MPH feet Rate Location/Type
02:19PM 60.8867 -30.5683 307° West  Level Estimated
02:20PM 60.8397 -30.7949 247° West  Level Estimated
02:21PM 60.7923 -31.0208 247° West  Level Estimated
02:22PM 60.7445 -31.2460 247° West  Level Estimated
02:23PM 60.6964 -31.4706 246° West  Level Estimated
02:24PM 60.6479 -31.6945 246° West  Level Estimated
02:25PM 60.5990 -31.9177 246° West  Level Estimated
02:26PM 60.5498 -32.1403 246° West  Level Estimated
02:27PM 60.5001 -32.3622 246° West  Level Estimated
02:28PM 60.4501 -32.5834 245° Southwest  Level Estimated
02:29PM 60.3998 -32.8039 245° Southwest  Level Estimated
02:30PM 60.3491 -33.0237 245° Southwest  Level Estimated
02:31PM 60.2980 -33.2428 245° Southwest  Level Estimated
02:32PM 60.2466 -33.4613 245° Southwest  Level Estimated
02:33PM 60.1948 -33.6790 245° Southwest  Level Estimated
02:34PM 60.1426 -33.8961 244° Southwest  Level Estimated
02:35PM 60.0901 -34.1125 244° Southwest  Level Estimated
02:36PM 60.0372 -34.3282 244° Southwest  Level Estimated
02:37PM 59.9840 -34.5432 244° Southwest  Level Estimated
02:38PM 59.9305 -34.7575 244° Southwest  Level Estimated
02:39PM 59.8766 -34.9711 243° Southwest  Level Estimated
02:40PM 59.8223 -35.1841 243° Southwest  Level Estimated
02:41PM 59.7677 -35.3963 243° Southwest  Level Estimated
02:42PM 59.7128 -35.6078 243° Southwest  Level Estimated
02:43PM 59.6575 -35.8187 243° Southwest  Level Estimated
02:44PM 59.6019 -36.0288 242° Southwest  Level Estimated
02:45PM 59.5460 -36.2383 242° Southwest  Level Estimated
02:46PM 59.4897 -36.4470 242° Southwest  Level Estimated
02:47PM 59.4331 -36.6551 242° Southwest  Level Estimated
02:48PM 59.3761 -36.8625 242° Southwest  Level Estimated
02:49PM 59.3189 -37.0691 242° Southwest  Level Estimated
02:50PM 59.2613 -37.2751 241° Southwest  Level Estimated
02:51PM 59.2034 -37.4804 241° Southwest  Level Estimated
02:52PM 59.1451 -37.6849 241° Southwest  Level Estimated
02:53PM 59.0866 -37.8888 241° Southwest  Level Estimated
02:54PM 59.0277 -38.0920 241° Southwest  Level Estimated
02:55PM 58.9685 -38.2944 241° Southwest  Level Estimated
02:56PM 58.9090 -38.4962 240° Southwest  Level Estimated
02:57PM 58.8492 -38.6973 240° Southwest  Level Estimated
02:58PM 58.7890 -38.8977 240° Southwest  Level Estimated
02:59PM 58.7286 -39.0974 240° Southwest  Level Estimated
03:00PM 58.6679 -39.2964 240° Southwest  Level Estimated
03:01PM 58.6068 -39.4947 239° Southwest  Level Estimated
03:02PM 58.5454 -39.6923 239° Southwest  Level Estimated
03:03PM 58.4838 -39.8893 239° Southwest  Level Estimated
03:04PM 58.4218 -40.0855 239° Southwest  Level Estimated
03:05PM 58.3596 -40.2810 239° Southwest  Level Estimated
03:06PM 58.2970 -40.4759 239° Southwest  Level Estimated
03:07PM 58.2341 -40.6700 238° Southwest  Level Estimated
03:08PM 58.1710 -40.8635 238° Southwest  Level Estimated
03:09PM 58.1075 -41.0563 238° Southwest  Level Estimated
03:10PM 58.0438 -41.2484 238° Southwest  Level Estimated
03:11PM 57.9798 -41.4398 238° Southwest  Level Estimated
03:12PM 57.9155 -41.6306 238° Southwest  Level Estimated
03:13PM 57.8509 -41.8206 237° Southwest  Level Estimated
03:14PM 57.7860 -42.0100 237° Southwest  Level Estimated
03:15PM 57.7209 -42.1987 237° Southwest  Level Estimated
03:15PM 62.3370 -49.0730 237° Southwest 475 547 38,000  Level FlightAware
03:16PM 57.6554 -42.3867 237° Southwest  Level Estimated
03:16PM 62.2650 -49.2740 232° Southwest 474 545 38,000  Level FlightAware
03:17PM 57.5897 -42.5740 237° Southwest  Level Estimated
03:17PM 62.2120 -49.4230 233° Southwest 475 547 38,000  Level FlightAware
03:18PM 62.1470 -49.6000 232° Southwest 477 549 38,000  Level FlightAware
03:18PM 62.1030 -49.7190 232° Southwest 477 549 38,000  Level FlightAware
03:19PM 62.0460 -49.8680 231° Southwest 477 549 38,000  Level FlightAware
03:21PM 61.8930 -50.3280 235° Southwest 473 544 38,000  Level FlightAware
03:22PM 61.8120 -50.5790 236° Southwest 473 544 38,000  Level FlightAware
03:23PM 61.7730 -50.6950 235° Southwest 473 544 38,000  Level FlightAware
03:24PM 61.6970 -50.9250 235° Southwest 473 544 38,000  Level FlightAware
03:27PM 61.5044 -51.4931 235° Southwest  Level FlightAware Approximate
03:28PM 61.4343 -51.6967 234° Southwest  Level FlightAware Approximate
03:29PM 61.3638 -51.8993 234° Southwest  Level FlightAware Approximate
03:30PM 61.2930 -52.1011 234° Southwest  Level FlightAware Approximate
03:31PM 61.2219 -52.3019 234° Southwest  Level FlightAware Approximate
03:32PM 61.1506 -52.5019 234° Southwest  Level FlightAware Approximate
03:33PM 61.0789 -52.7009 233° Southwest  Level FlightAware Approximate
03:34PM 61.0069 -52.8991 233° Southwest  Level FlightAware Approximate
03:35PM 60.9347 -53.0963 233° Southwest  Level FlightAware Approximate
03:36PM 60.8621 -53.2926 233° Southwest  Level FlightAware Approximate
03:37PM 60.7893 -53.4881 233° Southwest  Level FlightAware Approximate
03:38PM 60.7162 -53.6827 233° Southwest  Level FlightAware Approximate
03:39PM 60.6428 -53.8763 232° Southwest  Level FlightAware Approximate
03:40PM 60.5692 -54.0691 232° Southwest  Level FlightAware Approximate
03:41PM 60.4952 -54.2611 232° Southwest  Level FlightAware Approximate
03:42PM 60.4210 -54.4521 232° Southwest  Level FlightAware Approximate
03:43PM 60.3465 -54.6423 232° Southwest  Level FlightAware Approximate
03:44PM 60.2718 -54.8316 232° Southwest  Level FlightAware Approximate
03:45PM 60.1968 -55.0200 231° Southwest  Level FlightAware Approximate
03:46PM 60.1215 -55.2076 231° Southwest  Level FlightAware Approximate
03:47PM 60.0459 -55.3943 231° Southwest  Level FlightAware Approximate
03:48PM 59.9698 -55.5809 231° Southwest  Level FlightAware Approximate
03:49PM 59.8934 -55.7667 231° Southwest  Level FlightAware Approximate
03:50PM 59.8168 -55.9515 231° Southwest  Level FlightAware Approximate
03:51PM 59.7399 -56.1356 230° Southwest  Level FlightAware Approximate
03:51PM 59.6000 -56.4167 230° Southwest 330 380 38,000  Level Gander Center
03:52PM 59.6628 -56.3187 230° Southwest  Level FlightAware Approximate
03:52PM 59.5167 -56.6167 231° Southwest 440 506 38,000  Level Gander Center
03:53PM 59.5854 -56.5011 230° Southwest  Level FlightAware Approximate
03:53PM 59.4333 -56.8000 228° Southwest 450 518 38,000  Level Gander Center
03:54PM 59.5077 -56.6826 230° Southwest  Level FlightAware Approximate
03:54PM 59.3500 -57.0000 231° Southwest 450 518 38,000  Level Gander Center
03:55PM 59.4298 -56.8633 230° Southwest  Level FlightAware Approximate
03:55PM 59.2667 -57.1833 228° Southwest 460 529 38,000  Level Gander Center
03:56PM 59.3517 -57.0431 230° Southwest  Level FlightAware Approximate
03:56PM 59.2000 -57.3833 237° Southwest 460 529 38,000  Level Gander Center
03:57PM 59.1167 -57.5500 226° Southwest 460 529 38,000  Level Gander Center
03:58PM 59.0167 -57.7500 226° Southwest 460 529 38,000  Level Gander Center
03:59PM 58.9500 -57.9167 232° Southwest 460 529 38,000  Level Gander Center
04:00PM 58.8667 -58.1167 231° Southwest 450 518 38,000  Level Gander Center
04:01PM 58.7833 -58.3000 229° Southwest 450 518 38,000  Level Gander Center
04:02PM 58.7000 -58.4667 226° Southwest 440 506 38,000  Level Gander Center
04:03PM 58.6333 -58.6500 235° Southwest 440 506 38,000  Level Gander Center
04:04PM 58.5500 -58.8167 226° Southwest 440 506 38,000  Level Gander Center
04:05PM 58.4500 -59.0167 226° Southwest 430 495 38,000  Level Gander Center
04:06PM 58.3667 -59.1833 226° Southwest 440 506 38,000  Level Gander Center
04:07PM 58.3000 -59.3167 226° Southwest 430 495 38,000  Level Gander Center
04:08PM 58.2167 -59.5167 232° Southwest 430 495 38,000  Level Gander Center
04:09PM 58.1500 -59.6667 230° Southwest 430 495 38,000  Level Gander Center
04:10PM 58.0667 -59.8333 227° Southwest 440 506 38,000  Level Gander Center
04:11PM 57.9333 -60.0000 214° Southwest 440 506 38,000  Level Gander Center
04:12PM 57.8333 -60.1500 219° Southwest 450 518 38,000  Level Gander Center
04:13PM 57.7333 -60.2500 208° Southwest 450 518 38,000  Level Gander Center
04:14PM 57.6500 -60.3833 221° Southwest 450 518 38,000  Level Gander Center
04:15PM 57.5333 -60.5000 208° Southwest 440 506 38,000  Level Gander Center
04:16PM 57.4167 -60.6333 212° Southwest 440 506 38,000  Level Gander Center
04:17PM 57.3333 -60.7500 217° Southwest 440 506 38,000  Level Gander Center
04:18PM 57.2333 -60.8833 216° Southwest 440 506 38,000  Level Gander Center
04:19PM 57.1167 -61.0000 209° Southwest 420 483 38,000  Level Gander Center
04:20PM 57.0167 -61.1333 216° Southwest 450 518 38,000  Level Gander Center
04:21PM 56.9167 -61.2167 204° Southwest 430 495 38,000  Level Gander Center
04:22PM 56.8167 -61.3500 216° Southwest 450 518 38,000  Level Gander Center
04:23PM 56.7167 -61.4667 213° Southwest 440 506 38,000  Level Gander Center
04:24PM 56.6167 -61.5833 213° Southwest 440 506 38,000  Level Gander Center
04:25PM 56.5000 -61.7000 209° Southwest 440 506 38,000  Level Gander Center
04:26PM 56.4000 -61.8000 209° Southwest 440 506 38,000  Level Gander Center
04:27PM 56.2833 -61.9167 209° Southwest 440 506 38,000  Level Gander Center
04:28PM 56.1833 -62.0000 205° Southwest 440 506 38,000  Level Gander Center
04:29PM 56.0667 -62.0833 202° Southwest 440 506 38,000  Level Gander Center
04:30PM 55.9667 -62.2000 213° Southwest 440 506 38,000  Level Gander Center
04:31PM 55.8500 -62.3000 206° Southwest 440 506 38,000  Level Gander Center
04:32PM 55.7333 -62.4167 209° Southwest 440 506 38,000  Level Gander Center
04:33PM 55.6333 -62.5000 205° Southwest 450 518 38,000  Level Gander Center
04:34PM 55.5333 -62.6167 213° Southwest 440 506 38,000  Level Gander Center
04:35PM 55.4167 -62.7000 202° Southwest 440 506 38,000  Level Gander Center
04:36PM 55.3000 -62.7833 202° Southwest 450 518 38,000  Level Gander Center
04:37PM 55.1667 -62.8667 200° South 450 518 38,000  Level Gander Center
04:38PM 55.0667 -62.9500 206° Southwest 440 506 38,000  Level Gander Center
04:39PM 54.9500 -63.0333 202° Southwest 440 506 38,000  Level Gander Center
04:40PM 54.8333 -63.1167 202° Southwest 440 506 38,000  Level Gander Center
04:41PM 54.7167 -63.1833 198° South 440 506 38,000  Level Gander Center
04:42PM 54.6167 -63.2667 206° Southwest 440 506 38,000  Level Gander Center
04:43PM 54.5000 -63.3833 210° Southwest 440 506 38,000  Level Gander Center
04:44PM 54.3833 -63.4667 203° Southwest 440 506 38,000  Level Gander Center
04:45PM 54.2833 -63.5500 206° Southwest 440 506 38,000  Level Gander Center
04:46PM 54.1667 -63.6167 198° South 440 506 38,000  Level Gander Center
04:47PM 54.0500 -63.7000 203° Southwest 440 506 38,000  Level Gander Center
04:48PM 53.9333 -63.7833 203° Southwest 440 506 38,000  Level Gander Center
04:49PM 53.8333 -63.8667 206° Southwest 430 495 38,000  Level Gander Center
04:50PM 53.7167 -63.9333 199° South 430 495 38,000  Level Gander Center
04:51PM 53.6167 -64.0167 206° Southwest 430 495 38,000  Level Gander Center
04:52PM 53.5000 -64.1000 203° Southwest 420 483 38,000  Level Gander Center
04:53PM 53.4000 -64.1667 202° Southwest 430 495 38,000  Level Gander Center
04:54PM 53.2833 -64.2500 203° Southwest 420 483 38,000  Level Gander Center
04:55PM 53.1667 -64.3167 199° South 420 483 38,000  Level Gander Center
04:56PM 53.0500 -64.3667 194° South 420 483 38,000  Level Gander Center
04:57PM 52.9500 -64.4667 211° Southwest 420 483 38,000  Level Gander Center
04:58PM 52.8500 -64.5167 197° South 420 483 38,000  Level Gander Center
04:59PM 52.7333 -64.6000 203° Southwest 420 483 38,000  Level Gander Center
05:00PM 52.6333 -64.6667 202° Southwest 430 495 38,000  Level Gander Center
05:01PM 52.5167 -64.7500 203° Southwest 420 483 38,000  Level Gander Center
05:02PM 52.4000 -64.8167 199° South 430 495 38,000  Level Gander Center
05:03PM 52.2833 -64.8833 199° South 430 495 38,000  Level Gander Center
05:04PM 52.1833 -64.9667 207° Southwest 420 483 38,000  Level Gander Center
05:05PM 52.0833 -65.0333 202° Southwest 420 483 38,000 -60 Level Gander Center
05:06PM 51.9667 -65.1167 204° Southwest 420 483 37,900 -540 Descending Gander Center
05:07PM 51.8667 -65.1833 202° Southwest 420 483 37,000 -900 Descending Gander Center
05:08PM 51.7333 -65.2500 197° South 430 495 36,200 -540 Descending Gander Center
05:09PM 51.6333 -65.3333 207° Southwest 430 495 36,000 -120 Descending Gander Center
05:10PM 51.5167 -65.4000 200° South 430 495 36,000  Level Gander Center
05:11PM 51.4167 -65.4667 203° Southwest 430 495 36,000  Level Gander Center
05:12PM 51.3000 -65.5333 200° South 430 495 36,000  Level Gander Center
05:13PM 51.2000 -65.6000 203° Southwest 420 483 36,000  Level Gander Center
05:14PM 51.0667 -65.6667 197° South 420 483 36,000  Level Gander Center
05:15PM 50.9667 -65.7500 208° Southwest 420 483 36,000  Level Gander Center
05:16PM 50.8667 -65.8167 203° Southwest 420 483 36,000  Level Gander Center
05:17PM 50.7500 -65.8833 200° South 420 483 36,000  Level Gander Center
05:18PM 50.6500 -65.9333 198° South 420 483 36,000  Level Gander Center
05:19PM 50.5500 -66.0000 203° Southwest 420 483 36,000  Level Gander Center
05:20PM 50.4167 -66.0667 198° South 420 483 36,000  Level Gander Center
05:21PM 50.3167 -66.1333 203° Southwest 420 483 36,000  Level Gander Center
05:22PM 50.2000 -66.2000 200° South 420 483 36,000  Level Gander Center
05:23PM 50.1000 -66.2667 203° Southwest 420 483 36,000  Level Gander Center
05:24PM 50.0000 -66.3333 203° Southwest 420 483 36,000  Level Gander Center
05:25PM 49.8667 -66.4000 198° South 420 483 36,000  Level Gander Center
05:26PM 49.7667 -66.4667 203° Southwest 420 483 36,000  Level Gander Center
05:27PM 49.6500 -66.5333 200° South 420 483 36,000  Level Gander Center
05:28PM 49.5500 -66.6000 203° Southwest 420 483 36,000  Level Gander Center
05:29PM 49.4500 -66.6333 192° South 420 483 36,000  Level Gander Center
05:30PM 49.3333 -66.7000 200° South 420 483 36,000  Level Gander Center
05:31PM 49.2167 -66.7667 200° South 420 483 36,000  Level Gander Center
05:32PM 49.1167 -66.8333 204° Southwest 420 483 36,000  Level Gander Center
05:33PM 49.0167 -66.8833 198° South 420 483 36,000  Level Gander Center
05:34PM 48.8833 -66.9500 198° South 420 483 36,000  Level Gander Center
05:35PM 48.7833 -67.0167 204° Southwest 420 483 36,000  Level Gander Center
05:36PM 48.6667 -67.0833 201° Southwest 420 483 36,000  Level Gander Center
05:42PM 48.0270 -67.4360 201° Southwest 422 486 36,000  Level FlightAware
05:43PM 47.9360 -67.4830 199° South 422 486 36,000  Level FlightAware
05:43PM 47.8420 -67.5350 200° South 421 484 36,000  Level FlightAware
05:44PM 47.7880 -67.5630 199° South 420 483 36,000  Level FlightAware
05:45PM 47.7930 -67.5610 15° North 419 482 36,000  Level FlightAware
05:46PM 47.6140 -67.6570 200° South 419 482 36,000  Level FlightAware
05:46PM 47.5520 -67.6890 199° South 419 482 36,000  Level FlightAware
05:47PM 47.6140 -67.6570 19° North 36,000  Level FlightAware
05:48PM 47.3620 -67.7900 200° South 421 484 36,000  Level FlightAware
05:49PM 47.2370 -67.8550 199° South 421 484 36,000  Level FlightAware
05:51PM 46.9930 -67.9820 200° South 416 479 36,000  Level FlightAware
05:52PM 46.9550 -68.0010 199° South 416 479 36,000  Level FlightAware
05:53PM 46.7960 -68.0830 199° South 417 480 36,000  Level FlightAware
05:54PM 46.7360 -68.1140 200° South 417 480 36,000  Level FlightAware
05:55PM 46.7370 -68.1060 80° East 419 482 36,000  Level FlightAware
05:55PM 46.5590 -68.1840 197° South 419 482 36,000  Level FlightAware
05:56PM 46.4780 -68.2180 196° South 420 483 36,000  Level FlightAware
05:57PM 46.4100 -68.2460 196° South 422 486 36,000  Level FlightAware
05:57PM 46.3360 -68.2760 196° South 423 487 36,000  Level FlightAware
05:58PM 46.2590 -68.3080 196° South 415 478 36,000  Level FlightAware
05:59PM 46.1720 -68.3440 196° South 422 486 36,000  Level FlightAware
05:59PM 46.1010 -68.3730 196° South 422 486 36,000  Level FlightAware
06:00PM 46.0200 -68.4060 196° South 415 478 36,000  Level FlightAware
06:01PM 45.9460 -68.4350 195° South 415 478 36,000  Level FlightAware
06:01PM 45.8520 -68.4740 196° South 424 488 36,000  Level FlightAware
06:02PM 45.7770 -68.5040 196° South 424 488 36,000  Level FlightAware
06:03PM 45.7000 -68.5350 196° South 424 488 36,000  Level FlightAware
06:04PM 45.6180 -68.5680 196° South 423 487 36,000  Level FlightAware
06:04PM 45.5420 -68.5980 195° South 423 487 36,000  Level FlightAware
06:05PM 45.4640 -68.6290 196° South 422 486 36,000  Level FlightAware
06:06PM 45.3920 -68.6580 196° South 421 484 36,000  Level FlightAware
06:06PM 45.3180 -68.6870 195° South 422 486 36,000  Level FlightAware
06:07PM 45.2420 -68.7170 196° South 422 486 36,000  Level FlightAware
06:07PM 45.1690 -68.7460 196° South 423 487 36,000  Level FlightAware
06:08PM 45.0910 -68.7770 196° South 423 487 36,000  Level FlightAware
06:09PM 45.0160 -68.8060 195° South 423 487 36,000  Level FlightAware
06:10PM 44.9320 -68.8390 196° South 422 486 36,000  Level FlightAware
06:10PM 44.8510 -68.8720 196° South 421 484 36,000  Level FlightAware
06:11PM 44.7790 -68.9160 203° Southwest 420 483 36,000  Level FlightAware
06:12PM 44.7080 -68.9650 206° Southwest 419 482 36,000  Level FlightAware
06:12PM 44.6460 -69.0080 206° Southwest 420 483 36,000  Level FlightAware
06:13PM 44.5740 -69.0570 206° Southwest 419 482 36,000  Level FlightAware
06:14PM 44.5030 -69.1050 206° Southwest 419 482 36,000  Level FlightAware
06:14PM 44.4270 -69.1560 206° Southwest 416 479 36,000  Level FlightAware
06:15PM 44.3520 -69.2070 206° Southwest 415 478 36,000  Level FlightAware
06:16PM 44.2810 -69.2540 205° Southwest 414 476 36,000  Level FlightAware
06:16PM 44.2080 -69.3030 206° Southwest 414 476 36,000  Level FlightAware
06:17PM 44.1380 -69.3500 206° Southwest 415 478 36,000  Level FlightAware
06:18PM 44.0670 -69.3980 206° Southwest 415 478 36,000  Level FlightAware
06:19PM 43.9940 -69.4460 205° Southwest 412 474 36,000  Level FlightAware
06:19PM 43.9260 -69.4910 205° Southwest 410 472 36,000  Level FlightAware
06:19PM 43.9010 -69.5080 206° Southwest 409 471 36,000  Level FlightAware
06:21PM 43.7720 -69.5930 205° Southwest 407 468 36,000  Level FlightAware
06:21PM 43.6940 -69.6440 205° Southwest 407 468 36,000  Level FlightAware
06:22PM 43.6270 -69.6880 205° Southwest 406 467 36,000  Level FlightAware
06:23PM 43.5660 -69.7280 205° Southwest 405 466 36,000  Level FlightAware
06:24PM 43.4770 -69.7860 205° Southwest 405 466 36,000  Level FlightAware
06:24PM 43.3900 -69.8300 200° South 401 461 36,000  Level FlightAware
06:25PM 43.3000 -69.8510 190° South 405 466 36,000  Level FlightAware
06:26PM 43.2140 -69.8650 187° South 405 466 36,000  Level FlightAware
06:27PM 43.1410 -69.8760 186° South 405 466 36,000  Level FlightAware
06:27PM 43.0720 -69.8860 186° South 405 466 36,000  Level FlightAware
06:28PM 42.9920 -69.8980 186° South 405 466 36,000  Level FlightAware
06:29PM 42.9100 -69.9100 186° South 415 478 36,000  Level FlightAware
06:29PM 42.8250 -69.9220 186° South 417 480 36,000  Level FlightAware
06:30PM 42.7500 -69.9330 186° South 417 480 36,000  Level FlightAware
06:31PM 42.6640 -69.9450 186° South 416 479 36,000  Level FlightAware
06:31PM 42.5930 -69.9550 186° South 414 476 36,000  Level FlightAware
06:32PM 42.5030 -69.9680 186° South 407 468 36,000  Level FlightAware
06:33PM 42.4180 -69.9810 186° South 417 480 36,000  Level FlightAware
06:34PM 42.3410 -69.9910 185° South 420 483 36,000  Level FlightAware
06:34PM 42.2610 -70.0030 186° South 422 486 36,000  Level FlightAware
06:35PM 42.1750 -70.0160 186° South 423 487 36,000  Level FlightAware
06:36PM 42.0900 -70.0450 194° South 412 474 36,000  Level FlightAware
06:36PM 42.0200 -70.0880 205° Southwest 419 482 36,000  Level FlightAware
06:37PM 41.9490 -70.1510 213° Southwest 412 474 36,000  Level FlightAware
06:38PM 41.8900 -70.2260 223° Southwest 419 482 36,000  Level FlightAware
06:39PM 41.8340 -70.3070 227° Southwest 418 481 36,000  Level FlightAware
06:39PM 41.7900 -70.3710 227° Southwest 412 474 36,000  Level FlightAware
06:40PM 41.7370 -70.4490 228° Southwest 412 474 36,000  Level FlightAware
06:41PM 41.6640 -70.5550 227° Southwest 410 472 36,000  Level FlightAware
06:41PM 41.6080 -70.6340 227° Southwest 410 472 36,000  Level FlightAware
06:42PM 41.5490 -70.7200 228° Southwest 407 468 36,000  Level FlightAware
06:43PM 41.5010 -70.7890 227° Southwest 407 468 36,000  Level FlightAware
06:44PM 41.4480 -70.8660 227° Southwest 405 466 36,000  Level FlightAware
06:44PM 41.3910 -70.9470 227° Southwest 409 471 36,000  Level FlightAware
06:45PM 41.3390 -71.0210 227° Southwest 408 470 36,000  Level FlightAware
06:46PM 41.2890 -71.0950 228° Southwest 410 472 36,000  Level FlightAware
06:46PM 41.2596 -71.1525 236° Southwest 413 475 36,000  Level FlightAware ADS-B
06:47PM 41.2108 -71.2948 246° West 421 484 36,000  Level FlightAware ADS-B
06:48PM 41.1821 -71.3979 250° West 421 484 36,000  Level FlightAware ADS-B
06:48PM 41.1587 -71.4809 249° West 421 484 36,000  Level FlightAware ADS-B
06:49PM 41.1359 -71.5615 249° West 421 484 36,000  Level FlightAware ADS-B
06:50PM 41.1062 -71.6664 249° West 421 484 36,000  Level FlightAware ADS-B
06:50PM 41.0769 -71.7693 249° West 422 486 36,000  Level FlightAware ADS-B
06:51PM 41.0556 -71.8438 249° West 421 484 36,000  Level FlightAware ADS-B
06:51PM 41.0344 -71.9181 249° West 420 483 36,000  Level FlightAware ADS-B
06:52PM 41.0132 -71.9917 249° West 419 482 36,000  Level FlightAware ADS-B
06:52PM 40.9900 -72.0722 249° West 418 481 36,000  Level FlightAware ADS-B
06:53PM 40.9686 -72.1463 249° West 418 481 36,000  Level FlightAware ADS-B
06:53PM 40.9460 -72.2181 247° West 416 479 36,000  Level FlightAware ADS-B
06:54PM 40.9233 -72.2711 240° Southwest 413 475 36,000  Level FlightAware ADS-B
06:54PM 40.8993 -72.3173 236° Southwest 410 472 36,000  Level FlightAware ADS-B
06:55PM 40.8828 -72.3449 232° Southwest 408 470 36,000  Level FlightAware ADS-B
06:55PM 40.8516 -72.3897 227° Southwest 407 468 36,000  Level FlightAware ADS-B
06:55PM 40.8084 -72.4406 222° Southwest 406 467 36,000  Level FlightAware ADS-B
06:56PM 40.7913 -72.4605 221° Southwest 406 467 36,000  Level FlightAware ADS-B
06:56PM 40.7488 -72.5103 222° Southwest 406 467 36,000  Level FlightAware ADS-B
06:57PM 40.7122 -72.5527 221° Southwest 407 468 36,000  Level FlightAware ADS-B
06:57PM 40.6707 -72.6042 223° Southwest 407 468 36,000  Level FlightAware ADS-B
06:58PM 40.6276 -72.6550 222° Southwest 404 465 36,000  Level FlightAware ADS-B
06:58PM 40.5770 -72.7125 221° Southwest 403 464 36,000  Level FlightAware ADS-B
06:59PM 40.5131 -72.7854 221° Southwest 403 464 36,000 60 Level FlightAware ADS-B
07:00PM 40.4590 -72.8472 221° Southwest 405 466 36,100 540 Climbing FlightAware ADS-B
07:00PM 40.3971 -72.9174 221° Southwest 408 470 36,800 1,140 Climbing FlightAware ADS-B
07:01PM 40.3470 -72.9747 221° Southwest 405 466 37,600 1,020 Climbing FlightAware ADS-B
07:01PM 40.3028 -73.0250 221° Southwest 405 466 38,000 360 Climbing FlightAware ADS-B
07:02PM 40.2581 -73.0757 221° Southwest 405 466 38,000  Level FlightAware ADS-B
07:02PM 40.2141 -73.1256 221° Southwest 405 466 38,000  Level FlightAware ADS-B
07:03PM 40.1709 -73.1743 221° Southwest 405 466 38,000  Level FlightAware ADS-B
07:04PM 40.1160 -73.2360 221° Southwest 405 466 38,000  Level FlightAware
07:04PM 40.0826 -73.2736 221° Southwest 404 465 38,000  Level FlightAware ADS-B
07:05PM 40.0346 -73.3274 221° Southwest 404 465 38,000  Level FlightAware ADS-B
07:05PM 39.9896 -73.3779 221° Southwest 403 464 38,000  Level FlightAware ADS-B
07:06PM 39.9445 -73.4286 221° Southwest 403 464 38,000  Level FlightAware ADS-B
07:06PM 39.9022 -73.4758 221° Southwest 403 464 38,000  Level FlightAware ADS-B
07:07PM 39.8592 -73.5238 221° Southwest 403 464 38,000  Level FlightAware ADS-B
07:07PM 39.8067 -73.5822 221° Southwest 403 464 38,000  Level FlightAware ADS-B
07:08PM 39.7632 -73.6305 220° Southwest 403 464 38,000  Level FlightAware ADS-B
07:08PM 39.7129 -73.6864 221° Southwest 403 464 38,000  Level FlightAware ADS-B
07:09PM 39.6662 -73.7379 220° Southwest 401 461 38,000  Level FlightAware ADS-B
07:09PM 39.6237 -73.7848 220° Southwest 401 461 38,000  Level FlightAware ADS-B
07:10PM 39.5799 -73.8332 220° Southwest 400 460 38,000  Level FlightAware ADS-B
07:10PM 39.5364 -73.8812 220° Southwest 400 460 38,000  Level FlightAware ADS-B
07:11PM 39.4907 -73.9314 220° Southwest 399 459 38,000  Level FlightAware ADS-B
07:12PM 39.4454 -73.9812 220° Southwest 401 461 38,000  Level FlightAware ADS-B
07:12PM 39.4024 -74.0282 220° Southwest 402 463 38,000  Level FlightAware ADS-B
07:13PM 39.3561 -74.0789 220° Southwest 402 463 38,000  Level FlightAware ADS-B
07:13PM 39.3118 -74.1272 220° Southwest 404 465 38,000  Level FlightAware ADS-B
07:14PM 39.2686 -74.1743 220° Southwest 404 465 38,000  Level FlightAware ADS-B
07:14PM 39.2256 -74.2211 220° Southwest 404 465 38,000  Level FlightAware ADS-B
07:15PM 39.1608 -74.2914 220° Southwest 404 465 38,000  Level FlightAware ADS-B
07:15PM 39.1153 -74.3407 220° Southwest 402 463 38,000  Level FlightAware ADS-B
07:16PM 39.0706 -74.3889 220° Southwest 402 463 38,000  Level FlightAware ADS-B
07:16PM 39.0273 -74.4357 220° Southwest 402 463 38,000  Level FlightAware ADS-B
07:17PM 38.9841 -74.4823 220° Southwest 402 463 38,000  Level FlightAware ADS-B
07:18PM 38.9156 -74.5562 220° Southwest 402 463 38,000  Level FlightAware ADS-B
07:18PM 38.8725 -74.6024 220° Southwest 402 463 38,000  Level FlightAware ADS-B
07:19PM 38.8293 -74.6485 220° Southwest 401 461 38,000  Level FlightAware ADS-B
07:20PM 38.7581 -74.7245 220° Southwest 399 459 38,000  Level FlightAware ADS-B
07:20PM 38.7149 -74.7706 220° Southwest 398 458 38,000  Level FlightAware ADS-B
07:21PM 38.6725 -74.8158 220° Southwest 397 457 38,000  Level FlightAware ADS-B
07:21PM 38.6273 -74.8638 220° Southwest 397 457 38,000  Level FlightAware ADS-B
07:22PM 38.5838 -74.9100 220° Southwest 396 456 38,000  Level FlightAware ADS-B
07:22PM 38.5406 -74.9558 220° Southwest 397 457 38,000  Level FlightAware ADS-B
07:23PM 38.4963 -75.0027 220° Southwest 398 458 38,000  Level FlightAware ADS-B
07:23PM 38.4538 -75.0476 220° Southwest 398 458 38,000  Level FlightAware ADS-B
07:24PM 38.4120 -75.0920 220° Southwest 397 457 38,000  Level FlightAware
07:24PM 38.3823 -75.1224 219° Southwest 398 458 38,000  Level FlightAware ADS-B
07:24PM 38.3574 -75.1421 212° Southwest 395 455 38,000  Level FlightAware ADS-B
07:25PM 38.3096 -75.1762 209° Southwest 395 455 38,000  Level FlightAware ADS-B
07:25PM 38.2616 -75.2110 210° Southwest 394 453 38,000  Level FlightAware ADS-B
07:26PM 38.2116 -75.2470 210° Southwest 394 453 38,000  Level FlightAware ADS-B
07:26PM 38.1550 -75.2880 210° Southwest 387 445 38,000  Level FlightAware
07:27PM 38.0958 -75.3302 209° Southwest 395 455 38,000  Level FlightAware ADS-B
07:28PM 38.0476 -75.3647 209° Southwest 395 455 38,000  Level FlightAware ADS-B
07:28PM 37.9995 -75.3991 209° Southwest 395 455 38,000  Level FlightAware ADS-B
07:29PM 37.9515 -75.4335 209° Southwest 395 455 38,000  Level FlightAware ADS-B
07:29PM 37.8979 -75.4719 209° Southwest 397 457 38,000  Level FlightAware ADS-B
07:30PM 37.8260 -75.5230 209° Southwest 388 447 38,000  Level FlightAware
07:30PM 37.7838 -75.5533 210° Southwest 395 455 38,000  Level FlightAware ADS-B
07:31PM 37.7333 -75.5892 209° Southwest 396 456 38,000  Level FlightAware ADS-B
07:31PM 37.6833 -75.6247 209° Southwest 397 457 38,000  Level FlightAware ADS-B
07:32PM 37.6342 -75.6595 209° Southwest 397 457 38,000  Level FlightAware ADS-B
07:32PM 37.5850 -75.6943 209° Southwest 397 457 38,000  Level FlightAware ADS-B
07:33PM 37.5600 -75.7118 209° Southwest 398 458 38,000  Level FlightAware ADS-B
07:33PM 37.5391 -75.7233 204° Southwest 399 459 38,000  Level FlightAware ADS-B
07:33PM 37.5295 -75.7276 200° South 400 460 38,000  Level FlightAware ADS-B
07:33PM 37.5069 -75.7365 197° South 400 460 38,000  Level FlightAware ADS-B
07:33PM 37.4945 -75.7427 202° Southwest 398 458 38,000  Level FlightAware ADS-B
07:33PM 37.4818 -75.7508 207° Southwest 398 458 38,000  Level FlightAware ADS-B
07:34PM 37.4190 -75.8070 215° Southwest 391 450 38,000  Level FlightAware
07:35PM 37.3620 -75.8510 212° Southwest 396 456 38,000  Level FlightAware
07:35PM 37.3155 -75.8842 210° Southwest 397 457 38,000  Level FlightAware ADS-B
07:36PM 37.2653 -75.9194 209° Southwest 397 457 38,000  Level FlightAware ADS-B
07:36PM 37.2167 -75.9535 209° Southwest 399 459 38,000  Level FlightAware ADS-B
07:37PM 37.1699 -75.9862 209° Southwest 399 459 38,000  Level FlightAware ADS-B
07:37PM 37.1200 -76.0209 209° Southwest 401 461 38,000  Level FlightAware ADS-B
07:38PM 37.0712 -76.0550 209° Southwest 403 464 38,000  Level FlightAware ADS-B
07:38PM 37.0180 -76.0920 209° Southwest 403 464 38,000  Level FlightAware ADS-B
07:39PM 36.9689 -76.1260 209° Southwest 398 458 38,000  Level FlightAware ADS-B
07:39PM 36.9165 -76.1623 209° Southwest 397 457 38,000  Level FlightAware ADS-B
07:40PM 36.8643 -76.1985 209° Southwest 396 456 38,000  Level FlightAware ADS-B
07:40PM 36.8152 -76.2324 209° Southwest 395 455 38,000  Level FlightAware ADS-B
07:41PM 36.7612 -76.2697 209° Southwest 393 452 38,000  Level FlightAware ADS-B
07:41PM 36.7125 -76.3034 209° Southwest 393 452 38,000  Level FlightAware ADS-B
07:43PM 36.6090 -76.3740 209° Southwest 399 459 38,000  Level FlightAware
07:43PM 36.5420 -76.4200 209° Southwest 401 461 38,000  Level FlightAware
07:43PM 36.5242 -76.4325 209° Southwest 401 461 38,000  Level FlightAware ADS-B
07:44PM 36.4750 -76.4660 209° Southwest 400 460 38,000  Level FlightAware
07:45PM 36.4100 -76.5110 209° Southwest 403 464 38,000  Level FlightAware
07:46PM 36.3190 -76.5720 208° Southwest 405 466 38,000  Level FlightAware
07:46PM 36.2680 -76.6050 208° Southwest 405 466 38,000  Level FlightAware
07:47PM 36.2000 -76.6500 208° Southwest 405 466 38,000  Level FlightAware
07:47PM 36.1670 -76.6720 208° Southwest 405 466 38,000  Level FlightAware
07:48PM 36.0990 -76.7170 208° Southwest 405 466 38,000  Level FlightAware
07:49PM 36.0440 -76.7530 208° Southwest 405 466 38,000 -1,140 Level FlightAware
07:50PM 35.8800 -76.8661 208° Southwest 403 464 36,000 -960 Descending Washington Center
07:51PM 35.7792 -76.9336 209° Southwest 408 470 36,000  Level Washington Center
07:52PM 35.6803 -77.0011 209° Southwest 408 470 36,000  Level Washington Center
07:53PM 35.5817 -77.0656 208° Southwest 402 463 36,000  Level Washington Center
07:54PM 35.4747 -77.1097 199° South 402 463 36,000  Level Washington Center
07:55PM 35.3678 -77.1508 197° South 402 463 36,000  Level Washington Center
07:56PM 35.2608 -77.1919 197° South 409 471 36,000  Level Washington Center
07:57PM 35.1517 -77.2356 198° South 414 476 36,000  Level Washington Center
07:58PM 35.0447 -77.2767 197° South 408 470 36,000  Level Washington Center
07:59PM 34.9356 -77.3200 198° South 408 470 36,000  Level Washington Center
08:00PM 34.8494 -77.3536 198° South 408 470 36,000  Level Washington Center
08:01PM 34.7297 -77.4039 199° South 408 470 36,000  Level Washington Center
08:07PM 34.0160 -77.6780 199° South 417 480 36,000  Level FlightAware
08:08PM 33.9310 -77.7110 198° South 417 480 36,000  Level FlightAware
08:09PM 33.8620 -77.7360 197° South 417 480 36,000  Level FlightAware
08:09PM 33.7840 -77.7660 198° South 421 484 36,000  Level FlightAware
08:10PM 33.7110 -77.7940 198° South 421 484 36,000  Level FlightAware
08:11PM 33.6360 -77.8220 197° South 422 486 36,000  Level FlightAware
08:12PM 33.5790 -77.8430 197° South 422 486 36,000  Level FlightAware
08:13PM 33.5380 -77.8580 197° South 422 486 36,000  Level FlightAware
08:13PM 33.4620 -77.8860 197° South 422 486 36,000  Level FlightAware
08:14PM 33.2360 -77.9730 198° South 424 488 36,000  Level FlightAware
08:15PM 33.1520 -78.0050 198° South 424 488 36,000  Level FlightAware
08:16PM 33.0500 -78.0430 197° South 426 490 36,000  Level FlightAware
08:17PM 32.9920 -78.0640 197° South 426 490 36,000  Level FlightAware
08:17PM 32.8830 -78.1050 198° South 430 495 36,000  Level FlightAware
08:18PM 32.8060 -78.1340 198° South 432 497 36,000  Level FlightAware
08:19PM 32.7210 -78.1650 197° South 433 498 36,000  Level FlightAware
08:19PM 32.6530 -78.1910 198° South 434 499 36,000  Level FlightAware
08:20PM 32.5870 -78.2140 196° South 434 499 36,000  Level FlightAware
08:21PM 32.5020 -78.2460 198° South 430 495 36,000  Level FlightAware
08:22PM 32.3940 -78.2860 197° South 428 493 36,000  Level FlightAware
08:22PM 32.3300 -78.3100 198° South 429 494 36,000  Level FlightAware
08:23PM 32.2530 -78.3370 197° South 430 495 36,000  Level FlightAware
08:24PM 32.1820 -78.3640 198° South 430 495 36,000  Level FlightAware
08:24PM 32.1030 -78.3920 197° South 430 495 36,000  Level FlightAware
08:25PM 32.0450 -78.4130 197° South 430 495 36,000  Level FlightAware
08:26PM 31.9670 -78.4410 197° South 430 495 36,000  Level FlightAware
08:26PM 31.9090 -78.4620 197° South 430 495 36,000  Level FlightAware
08:28PM 31.7920 -78.5040 197° South 430 495 36,000  Level FlightAware
08:28PM 31.7340 -78.5250 197° South 430 495 36,000  Level FlightAware
08:29PM 31.6570 -78.5530 197° South 430 495 36,000  Level FlightAware
08:30PM 31.5980 -78.5740 197° South 430 495 36,000  Level FlightAware
08:30PM 31.5390 -78.5950 197° South 430 495 36,000  Level FlightAware
08:31PM 31.4800 -78.6160 197° South 430 495 36,000  Level FlightAware
08:32PM 31.4030 -78.6440 197° South 430 495 36,000  Level FlightAware
08:32PM 31.3450 -78.6650 197° South 430 495 36,000  Level FlightAware
08:33PM 31.2670 -78.6930 197° South 430 495 36,000  Level FlightAware
08:34PM 31.0022 -78.7919 197° South 435 501 36,000  Level Jacksonville Center
08:35PM 30.8844 -78.8308 196° South 440 506 36,000  Level Jacksonville Center
08:36PM 30.7667 -78.8747 198° South 435 501 36,000  Level Jacksonville Center
08:37PM 30.6492 -78.9158 197° South 435 501 36,000  Level Jacksonville Center
08:38PM 30.5314 -78.9569 197° South 440 506 36,000  Level Jacksonville Center
08:39PM 30.3933 -79.0053 197° South 413 475 36,000  Level Miami Center
08:40PM 30.2800 -79.0581 202° Southwest 434 499 36,000  Level Miami Center
08:41PM 30.1583 -79.1083 200° South 440 506 36,000  Level Miami Center
08:42PM 30.0492 -79.1564 201° Southwest 445 512 36,000  Level Miami Center
08:43PM 29.9378 -79.2139 204° Southwest 437 503 36,000  Level Miami Center
08:44PM 29.8222 -79.2617 200° South 443 510 36,000  Level Miami Center
08:45PM 29.7067 -79.3139 201° Southwest 443 510 36,000  Level Miami Center
08:51PM 28.9950 -79.5850 201° Southwest 455 524 36,000  Level FlightAware
08:52PM 28.9080 -79.6010 189° South 455 524 36,000  Level FlightAware
08:53PM 28.8020 -79.6210 189° South 452 520 36,000  Level FlightAware
08:53PM 28.7340 -79.6330 189° South 454 522 36,000  Level FlightAware
08:55PM 28.5400 -79.6680 189° South 455 524 36,000  Level FlightAware
08:55PM 28.4600 -79.6820 189° South 452 520 36,000  Level FlightAware
08:56PM 28.3840 -79.6960 189° South 440 506 36,000  Level FlightAware
08:57PM 28.3000 -79.7110 189° South 439 505 36,000  Level FlightAware
08:57PM 28.2010 -79.7280 189° South 439 505 36,000  Level FlightAware
08:58PM 28.0990 -79.7470 189° South 441 507 36,000  Level FlightAware
08:59PM 28.0230 -79.7600 189° South 442 509 36,000  Level FlightAware
09:00PM 27.9330 -79.7760 189° South 442 509 36,000  Level FlightAware
09:00PM 27.8430 -79.7920 189° South 441 507 36,000  Level FlightAware
09:01PM 27.7550 -79.8070 189° South 441 507 36,000  Level FlightAware
09:02PM 27.6750 -79.8210 189° South 441 507 36,000  Level FlightAware
09:02PM 27.5990 -79.8350 189° South 443 510 36,000  Level FlightAware
09:03PM 27.5080 -79.8510 189° South 452 520 36,000  Level FlightAware
09:04PM 27.4300 -79.8640 188° South 453 521 36,000  Level FlightAware
09:04PM 27.3490 -79.8790 189° South 453 521 36,000  Level FlightAware
09:05PM 27.2710 -79.8920 188° South 452 520 36,000  Level FlightAware
09:06PM 27.1690 -79.9100 189° South 452 520 36,000  Level FlightAware
09:06PM 27.0950 -79.9230 189° South 443 510 36,000  Level FlightAware
09:07PM 26.9970 -79.9400 189° South 442 509 36,000  Level FlightAware
09:08PM 26.9200 -79.9540 189° South 442 509 36,000  Level FlightAware
09:08PM 26.8310 -79.9690 189° South 442 509 36,000  Level FlightAware
09:09PM 26.7420 -79.9840 189° South 443 510 36,000  Level FlightAware
09:10PM 26.6770 -79.9960 189° South 452 520 36,000  Level FlightAware
09:10PM 26.5850 -80.0120 189° South 453 521 36,000  Level FlightAware
09:11PM 26.5040 -80.0260 189° South 454 522 36,000  Level FlightAware
09:12PM 26.4250 -80.0390 188° South 454 522 36,000  Level FlightAware
09:12PM 26.3350 -80.0550 189° South 453 521 36,000  Level FlightAware
09:13PM 26.2560 -80.0680 188° South 455 524 36,000  Level FlightAware
09:14PM 26.1550 -80.0860 189° South 457 526 36,000  Level FlightAware
09:15PM 26.0740 -80.1000 189° South 458 527 36,000  Level FlightAware
09:15PM 25.9840 -80.1150 189° South 457 526 36,000  Level FlightAware
09:16PM 25.9010 -80.1290 189° South 458 527 36,000  Level FlightAware
09:17PM 25.8150 -80.1530 194° South 456 525 36,000  Level FlightAware
09:17PM 25.7260 -80.1950 203° Southwest 453 521 36,000  Level FlightAware
09:18PM 25.6510 -80.2480 213° Southwest 446 513 36,000  Level FlightAware
09:19PM 25.5870 -80.3060 219° Southwest 455 524 36,000  Level FlightAware
09:19PM 25.5170 -80.3690 219° Southwest 456 525 36,000  Level FlightAware
09:20PM 25.4530 -80.4270 219° Southwest 458 527 36,000  Level FlightAware
09:21PM 25.3820 -80.4920 220° Southwest 458 527 36,000  Level FlightAware
09:22PM 25.3110 -80.5560 219° Southwest 457 526 36,000 -120 Level FlightAware
09:22PM 25.2390 -80.6210 219° Southwest 456 525 35,900 -540 Descending FlightAware
09:23PM 25.1760 -80.6790 220° Southwest 458 527 35,300 -960 Descending FlightAware
09:24PM 25.1140 -80.7350 219° Southwest 462 532 34,700 -1,020 Descending FlightAware
09:24PM 25.0490 -80.7930 219° Southwest 460 529 34,000 -1,080 Descending FlightAware
09:25PM 24.9780 -80.8560 219° Southwest 454 522 33,300 -1,020 Descending FlightAware
09:26PM 24.9160 -80.9120 219° Southwest 454 522 32,700 -960 Descending FlightAware
09:26PM 24.8560 -80.9670 220° Southwest 442 509 32,100 -1,020 Descending FlightAware
09:27PM 24.7830 -81.0320 219° Southwest 442 509 31,300 -1,080 Descending FlightAware
09:28PM 24.7210 -81.1000 225° Southwest 437 503 30,600 -1,020 Descending FlightAware
09:28PM 24.6750 -81.1700 234° Southwest 438 504 30,000 -1,020 Descending FlightAware
09:29PM 24.6350 -81.2510 241° Southwest 436 502 29,300 -1,080 Descending FlightAware
09:30PM 24.5920 -81.3390 242° Southwest 434 499 28,500 -1,020 Descending FlightAware
09:30PM 24.5600 -81.4020 241° Southwest 426 490 28,000 -960 Descending FlightAware
09:31PM 24.5200 -81.4830 242° Southwest 419 482 27,300 -1,080 Descending FlightAware
09:32PM 24.4790 -81.5660 242° Southwest 413 475 26,500 -1,080 Descending FlightAware
09:32PM 24.4490 -81.6260 241° Southwest 413 475 26,000 -1,020 Descending FlightAware
09:33PM 24.4130 -81.6980 241° Southwest 413 475 25,300 -1,080 Descending FlightAware
09:34PM 24.3740 -81.7770 242° Southwest 408 470 24,600 -1,020 Descending FlightAware
09:34PM 24.3320 -81.8610 241° Southwest 392 451 23,800 -1,020 Descending FlightAware
09:35PM 24.3010 -81.9230 241° Southwest 391 450 23,200 -1,020 Descending FlightAware
09:36PM 24.2560 -82.0110 241° Southwest 390 449 22,400 -720 Descending FlightAware
09:37PM 24.2080 -82.1080 242° Southwest 386 444 22,000 -300 Descending FlightAware
09:37PM 24.1780 -82.1690 242° Southwest 386 444 22,000  Level FlightAware
09:38PM 24.1440 -82.2390 242° Southwest 386 444 22,000  Level FlightAware
09:39PM 24.0969 -82.3294 242° Southwest 388 447 22,000  Level Miami Center
09:41PM 24.0000 -82.4953 270° West  Level FlightAware Approximate
09:48PM 23.1878 -82.4167 180° South  Level FlightAware Approximate
09:49PM 23.0693 -82.4038 170° South  Level FlightAware Approximate
09:50PM 22.9891 -82.4091 180° South  Level Estimated
09:51PM 22.9891 -82.4091 180° South  Level Estimated
09:52PM 22.9891 -82.4091 180° South  Level Estimated
09:53PM 22.9891 -82.4091 180° South  Level Estimated
09:54PM 22.9891 -82.4091 180° South  Level Estimated
09:55PM 22.9891 -82.4091 180° South  Level Estimated
09:56PM 22.9891 -82.4091 180° South  Level Estimated
09:57PM 22.9891 -82.4091 180° South  Level Estimated
09:58PM 22.9891 -82.4091 180° South  Level Estimated
09:59PM 22.9891 -82.4091 180° South  Level Estimated
10:00PM 22.9891 -82.4091 180° South  Level Estimated
10:01PM 22.9891 -82.4091 180° South  Level Estimated
10:02PM 22.9891 -82.4091 180° South  Level Estimated
10:03PM 22.9891 -82.4091 180° South  Level Estimated
10:04PM 22.9891 -82.4091 180° South  Level Estimated
10:05PM 22.9891 -82.4091 180° South  Level Estimated
10:06PM 22.9891 -82.4091 180° South  Level Estimated
10:07PM 22.9891 -82.4091 180° South  Level Estimated
10:08PM 22.9891 -82.4091 180° South  Level Estimated
10:09PM 22.9891 -82.4091 180° South  Level Estimated